createdAt,value
2022-10-11T00:01:34.475Z,36.53
2022-10-11T00:03:36.305Z,36.21
2022-10-11T00:05:38.175Z,36.08
2022-10-11T00:07:39.936Z,36.04
2022-10-11T00:09:41.597Z,36.24
2022-10-11T00:11:43.395Z,36.00
2022-10-11T00:13:45.106Z,36.23
2022-10-11T00:15:46.773Z,36.05
2022-10-11T00:17:48.480Z,35.65
2022-10-11T00:19:50.203Z,35.96
2022-10-11T00:21:52.073Z,35.82
2022-10-11T00:23:53.813Z,35.65
2022-10-11T00:26:03.699Z,35.64
2022-10-11T00:28:05.868Z,35.99
2022-10-11T00:30:08.248Z,35.90
2022-10-11T00:32:09.927Z,35.68
2022-10-11T00:34:11.588Z,35.99
2022-10-11T00:36:13.386Z,35.89
2022-10-11T00:38:15.448Z,35.88
2022-10-11T00:40:18.725Z,35.75
2022-10-11T00:42:20.373Z,35.90
2022-10-11T00:44:24.182Z,35.59
2022-10-11T00:46:27.385Z,35.98
2022-10-11T00:48:41.110Z,35.56
2022-10-11T00:50:42.826Z,35.86
2022-10-11T00:52:56.139Z,35.88
2022-10-11T00:55:23.640Z,35.79
2022-10-11T00:57:26.133Z,35.50
2022-10-11T00:59:29.642Z,35.53
2022-10-11T01:01:31.363Z,35.41
2022-10-11T01:03:33.091Z,35.45
2022-10-11T01:05:36.300Z,35.61
2022-10-11T01:07:38.164Z,35.50
2022-10-11T01:09:39.925Z,35.23
2022-10-11T01:11:41.897Z,35.55
2022-10-11T01:14:03.640Z,35.57
2022-10-11T01:16:31.955Z,35.77
2022-10-11T01:18:56.554Z,35.40
2022-10-11T01:21:18.476Z,35.59
2022-10-11T01:23:34.626Z,35.60
2022-10-11T01:26:08.888Z,35.69
2022-10-11T01:28:31.490Z,35.79
2022-10-11T01:30:34.378Z,35.77
2022-10-11T01:33:19.468Z,35.42
2022-10-11T01:35:45.105Z,35.56
2022-10-11T01:38:08.241Z,35.27
2022-10-11T01:40:15.198Z,35.29
2022-10-11T01:42:17.024Z,35.65
2022-10-11T01:44:18.738Z,35.61
2022-10-11T01:46:20.426Z,35.55
2022-10-11T01:48:22.099Z,35.49
2022-10-11T01:50:39.152Z,35.55
2022-10-11T01:52:40.858Z,35.52
2022-10-11T01:55:09.910Z,35.48
2022-10-11T01:57:27.675Z,35.24
2022-10-11T01:59:49.626Z,35.61
2022-10-11T02:01:54.359Z,35.36
2022-10-11T02:04:04.610Z,35.22
2022-10-11T02:06:10.405Z,35.26
2022-10-11T02:08:27.447Z,35.10
2022-10-11T02:10:36.146Z,35.16
2022-10-11T02:12:40.249Z,35.14
2022-10-11T02:14:43.904Z,35.30
2022-10-11T02:16:56.546Z,34.99
2022-10-11T02:18:58.308Z,35.20
2022-10-11T02:21:00.828Z,34.93
2022-10-11T02:23:30.178Z,34.89
2022-10-11T02:25:33.750Z,35.20
2022-10-11T02:27:36.860Z,35.20
2022-10-11T02:29:40.039Z,34.74
2022-10-11T02:31:41.762Z,34.96
2022-10-11T02:33:50.428Z,35.02
2022-10-11T02:35:56.133Z,35.15
2022-10-11T02:38:05.878Z,34.92
2022-10-11T02:40:14.910Z,34.66
2022-10-11T02:42:26.148Z,35.13
2022-10-11T02:44:31.296Z,34.74
2022-10-11T02:46:33.038Z,34.73
2022-10-11T02:48:34.761Z,34.54
2022-10-11T02:50:37.439Z,35.05
2022-10-11T02:52:39.242Z,34.82
2022-10-11T02:54:40.958Z,34.64
2022-10-11T02:56:42.797Z,34.77
2022-10-11T02:58:44.573Z,34.47
2022-10-11T03:00:46.287Z,34.61
2022-10-11T03:02:47.957Z,34.51
2022-10-11T03:04:49.699Z,34.46
2022-10-11T03:06:51.413Z,34.56
2022-10-11T03:08:53.117Z,34.68
2022-10-11T03:10:54.924Z,34.93
2022-10-11T03:12:56.567Z,34.38
2022-10-11T03:14:58.238Z,34.72
2022-10-11T03:17:17.357Z,34.43
2022-10-11T03:19:21.643Z,34.61
2022-10-11T03:21:23.403Z,34.83
2022-10-11T03:23:25.146Z,34.67
2022-10-11T03:25:26.876Z,34.39
2022-10-11T03:27:28.657Z,34.40
2022-10-11T03:29:30.360Z,34.70
2022-10-11T03:31:32.036Z,34.36
2022-10-11T03:33:33.704Z,34.25
2022-10-11T03:35:35.371Z,34.55
2022-10-11T03:37:37.135Z,34.14
2022-10-11T03:39:38.889Z,34.82
2022-10-11T03:41:40.740Z,34.58
2022-10-11T03:43:42.421Z,34.42
2022-10-11T03:45:44.060Z,34.70
2022-10-11T03:47:45.838Z,34.28
2022-10-11T03:49:47.545Z,34.32
2022-10-11T03:51:49.210Z,34.29
2022-10-11T03:53:50.876Z,35.10
2022-10-11T03:55:53.778Z,34.60
2022-10-11T03:57:55.681Z,34.87
2022-10-11T03:59:57.332Z,35.04
2022-10-11T04:01:59.214Z,34.86
2022-10-11T04:04:00.988Z,34.57
2022-10-11T04:06:03.014Z,34.49
2022-10-11T04:08:09.739Z,34.42
2022-10-11T04:10:13.635Z,34.24
2022-10-11T04:12:15.282Z,34.28
2022-10-11T04:14:17.020Z,34.14
2022-10-11T04:16:18.822Z,34.70
2022-10-11T04:18:20.602Z,34.27
2022-10-11T04:20:22.828Z,34.33
2022-10-11T04:22:24.606Z,34.38
2022-10-11T04:24:26.332Z,34.13
2022-10-11T04:26:30.238Z,34.12
2022-10-11T04:28:32.788Z,34.37
2022-10-11T04:30:34.556Z,34.30
2022-10-11T04:32:36.267Z,34.42
2022-10-11T04:34:38.018Z,34.51
2022-10-11T04:36:39.788Z,34.14
2022-10-11T04:38:41.540Z,34.32
2022-10-11T04:40:43.210Z,34.23
2022-10-11T04:42:44.980Z,34.38
2022-10-11T04:44:46.685Z,34.14
2022-10-11T04:46:48.430Z,34.30
2022-10-11T04:48:50.330Z,34.30
2022-10-11T04:50:51.995Z,34.05
2022-10-11T04:52:53.694Z,34.47
2022-10-11T04:54:55.345Z,34.27
2022-10-11T04:56:57.064Z,34.31
2022-10-11T04:58:58.807Z,34.35
2022-10-11T05:01:00.527Z,34.35
2022-10-11T05:03:02.165Z,34.51
2022-10-11T05:05:04.071Z,34.56
2022-10-11T05:07:05.794Z,34.55
2022-10-11T05:09:07.451Z,34.94
2022-10-11T05:11:12.838Z,35.11
2022-10-11T05:13:15.707Z,34.71
2022-10-11T05:15:17.464Z,34.65
2022-10-11T05:17:19.092Z,34.72
2022-10-11T05:19:20.796Z,34.82
2022-10-11T05:21:27.075Z,34.66
2022-10-11T05:23:29.765Z,34.63
2022-10-11T05:25:31.471Z,34.97
2022-10-11T05:27:33.159Z,34.84
2022-10-11T05:29:34.816Z,34.84
2022-10-11T05:31:36.507Z,35.00
2022-10-11T05:33:38.285Z,34.83
2022-10-11T05:35:40.135Z,35.01
2022-10-11T05:37:41.898Z,34.96
2022-10-11T05:39:43.559Z,35.12
2022-10-11T05:41:45.751Z,34.85
2022-10-11T05:43:47.440Z,34.93
2022-10-11T05:45:49.409Z,35.23
2022-10-11T05:47:51.158Z,35.18
2022-10-11T05:49:52.888Z,35.17
2022-10-11T05:51:54.579Z,35.26
2022-10-11T05:53:56.275Z,35.51
2022-10-11T05:55:58.064Z,35.21
2022-10-11T05:57:59.723Z,35.39
2022-10-11T06:00:01.421Z,35.07
2022-10-11T06:02:03.139Z,35.24
2022-10-11T06:04:04.978Z,35.25
2022-10-11T06:06:06.936Z,35.30
2022-10-11T06:08:09.074Z,35.23
2022-10-11T06:10:10.810Z,35.35
2022-10-11T06:12:12.457Z,35.55
2022-10-11T06:14:14.149Z,35.13
2022-10-11T06:16:15.929Z,35.28
2022-10-11T06:18:17.648Z,35.44
2022-10-11T06:20:19.371Z,35.15
2022-10-11T06:22:21.125Z,35.22
2022-10-11T06:24:22.890Z,35.36
2022-10-11T06:26:24.536Z,35.33
2022-10-11T06:28:27.397Z,35.64
2022-10-11T06:30:29.101Z,35.55
2022-10-11T06:32:30.831Z,35.30
2022-10-11T06:34:32.568Z,35.40
2022-10-11T06:36:34.244Z,35.21
2022-10-11T06:38:37.283Z,35.38
2022-10-11T06:40:40.508Z,35.50
2022-10-11T06:42:42.262Z,35.45
2022-10-11T06:44:44.058Z,35.28
2022-10-11T06:46:45.782Z,35.67
2022-10-11T06:48:49.838Z,35.62
2022-10-11T06:51:00.327Z,35.57
2022-10-11T06:53:02.464Z,35.42
2022-10-11T06:55:04.476Z,35.53
2022-10-11T06:57:06.171Z,35.33
2022-10-11T06:59:08.675Z,35.41
2022-10-11T07:01:12.130Z,35.47
2022-10-11T07:03:13.970Z,35.25
2022-10-11T07:05:16.632Z,35.49
2022-10-11T07:07:18.365Z,35.57
2022-10-11T07:09:20.117Z,35.35
2022-10-11T07:11:23.985Z,35.46
2022-10-11T07:13:25.657Z,35.56
2022-10-11T07:15:27.353Z,35.56
2022-10-11T07:17:29.112Z,35.75
2022-10-11T07:19:30.854Z,35.63
2022-10-11T07:22:02.762Z,35.76
2022-10-11T07:24:04.731Z,35.50
2022-10-11T07:26:06.910Z,35.53
2022-10-11T07:28:08.919Z,35.60
2022-10-11T07:30:11.124Z,35.65
2022-10-11T07:32:12.813Z,35.97
2022-10-11T07:34:14.506Z,35.78
2022-10-11T07:36:16.414Z,35.87
2022-10-11T07:38:18.117Z,35.82
2022-10-11T07:40:19.780Z,35.85
2022-10-11T07:42:21.436Z,35.64
2022-10-11T07:44:23.179Z,35.71
2022-10-11T07:46:24.864Z,35.72
2022-10-11T07:48:26.592Z,35.79
2022-10-11T07:50:28.299Z,35.91
2022-10-11T07:52:30.009Z,35.65
2022-10-11T07:54:31.687Z,35.84
2022-10-11T07:56:33.440Z,35.81
2022-10-11T07:58:35.144Z,35.77
2022-10-11T08:00:36.860Z,35.87
2022-10-11T08:02:38.584Z,35.78
2022-10-11T08:04:40.366Z,36.02
2022-10-11T08:06:42.063Z,35.71
2022-10-11T08:08:43.718Z,35.66
2022-10-11T08:10:45.526Z,35.57
2022-10-11T08:12:47.895Z,36.02
2022-10-11T08:14:49.487Z,35.71
2022-10-11T08:16:51.132Z,35.76
2022-10-11T08:18:52.798Z,35.58
2022-10-11T08:20:54.477Z,36.12
2022-10-11T08:22:56.111Z,36.06
2022-10-11T08:24:57.792Z,35.79
2022-10-11T08:26:59.516Z,35.68
2022-10-11T08:29:01.423Z,35.78
2022-10-11T08:31:03.221Z,36.12
2022-10-11T08:33:08.364Z,35.77
2022-10-11T08:35:10.470Z,35.71
2022-10-11T08:37:12.144Z,35.84
2022-10-11T08:39:14.122Z,35.87
2022-10-11T08:41:28.785Z,35.75
2022-10-11T08:43:37.400Z,35.94
2022-10-11T08:45:44.538Z,35.91
2022-10-11T08:47:46.242Z,36.05
2022-10-11T08:49:47.911Z,35.89
2022-10-11T08:51:59.939Z,35.76
2022-10-11T08:54:12.180Z,35.93
2022-10-11T08:56:14.092Z,35.88
2022-10-11T08:58:21.061Z,35.88
2022-10-11T09:00:23.526Z,35.55
2022-10-11T09:03:08.042Z,36.06
2022-10-11T09:05:13.876Z,35.86
2022-10-11T09:07:30.464Z,35.81
2022-10-11T09:09:53.625Z,35.93
2022-10-11T09:12:29.517Z,35.92
2022-10-11T09:14:52.243Z,35.98
2022-10-11T09:17:12.569Z,35.76
2022-10-11T09:19:38.646Z,35.81
2022-10-11T09:21:45.847Z,35.75
2022-10-11T09:24:12.513Z,36.01
2022-10-11T09:26:38.897Z,35.95
2022-10-11T09:28:51.035Z,36.13
2022-10-11T09:30:53.084Z,35.65
2022-10-11T09:33:11.131Z,35.88
2022-10-11T09:35:18.196Z,35.95
2022-10-11T09:37:29.878Z,35.75
2022-10-11T09:39:35.317Z,35.90
2022-10-11T09:41:42.984Z,35.74
2022-10-11T09:43:48.226Z,36.11
2022-10-11T09:45:49.980Z,36.00
2022-10-11T09:47:52.780Z,36.21
2022-10-11T09:50:14.641Z,36.02
2022-10-11T09:52:20.996Z,36.04
2022-10-11T09:54:39.682Z,35.98
2022-10-11T09:56:43.837Z,35.82
2022-10-11T09:58:45.525Z,36.23
2022-10-11T10:00:47.205Z,35.79
2022-10-11T10:02:56.093Z,35.97
2022-10-11T10:05:01.772Z,36.14
2022-10-11T10:07:10.386Z,35.89
2022-10-11T10:09:30.051Z,35.78
2022-10-11T10:11:36.480Z,36.05
2022-10-11T10:13:46.077Z,35.90
2022-10-11T10:15:49.319Z,35.81
2022-10-11T10:17:52.094Z,36.06
2022-10-11T10:19:54.975Z,36.04
2022-10-11T10:21:56.704Z,36.04
2022-10-11T10:23:59.220Z,36.14
2022-10-11T10:26:30.052Z,36.22
2022-10-11T10:28:31.806Z,35.96
2022-10-11T10:30:35.637Z,35.81
2022-10-11T10:32:51.574Z,36.09
2022-10-11T10:35:15.935Z,36.09
2022-10-11T10:37:32.435Z,35.99
2022-10-11T10:39:50.189Z,36.06
2022-10-11T10:41:51.985Z,36.11
2022-10-11T10:43:56.337Z,36.19
2022-10-11T10:45:57.804Z,35.85
2022-10-11T10:48:42.272Z,36.20
2022-10-11T10:51:01.104Z,36.24
2022-10-11T10:53:52.993Z,36.20
2022-10-11T10:56:17.493Z,35.87
2022-10-11T10:58:40.079Z,35.78
2022-10-11T11:00:44.596Z,35.86
2022-10-11T11:03:02.484Z,36.18
2022-10-11T11:05:41.226Z,35.97
2022-10-11T11:08:09.856Z,36.01
2022-10-11T11:10:20.263Z,36.23
2022-10-11T11:12:48.672Z,36.14
2022-10-11T11:14:59.908Z,35.90
2022-10-11T11:17:27.262Z,36.07
2022-10-11T11:19:57.653Z,36.05
2022-10-11T11:22:10.831Z,36.14
2022-10-11T11:24:21.122Z,36.24
2022-10-11T11:26:44.539Z,36.19
2022-10-11T11:29:01.119Z,36.01
2022-10-11T11:31:21.711Z,36.22
2022-10-11T11:33:23.233Z,36.25
2022-10-11T11:35:33.343Z,36.05
2022-10-11T11:37:36.983Z,36.00
2022-10-11T11:40:15.587Z,36.17
2022-10-11T11:42:23.202Z,35.93
2022-10-11T11:44:32.983Z,36.06
2022-10-11T11:46:38.574Z,36.02
2022-10-11T11:48:40.278Z,36.06
2022-10-11T11:50:43.341Z,36.13
2022-10-11T11:52:47.107Z,36.00
2022-10-11T11:55:03.763Z,36.08
2022-10-11T11:57:24.373Z,36.21
2022-10-11T11:59:44.695Z,36.03
2022-10-11T12:02:40.378Z,36.09
2022-10-11T12:04:42.894Z,36.41
2022-10-11T12:07:11.111Z,36.11
2022-10-11T12:09:18.457Z,36.41
2022-10-11T12:11:41.305Z,36.11
2022-10-11T12:13:42.981Z,36.16
2022-10-11T12:15:56.665Z,36.03
2022-10-11T12:18:03.113Z,36.20
2022-10-11T12:20:13.010Z,36.02
2022-10-11T12:22:18.534Z,36.14
2022-10-11T12:24:20.099Z,36.33
2022-10-11T12:26:27.619Z,36.04
2022-10-11T12:28:38.430Z,36.30
2022-10-11T12:30:48.877Z,36.21
2022-10-11T12:32:50.932Z,36.41
2022-10-11T12:34:52.689Z,36.09
2022-10-11T12:36:54.404Z,36.34
2022-10-11T12:39:20.925Z,36.47
2022-10-11T12:41:25.299Z,36.17
2022-10-11T12:43:28.036Z,36.25
2022-10-11T12:45:31.117Z,36.27
2022-10-11T12:47:37.760Z,36.33
2022-10-11T12:49:54.167Z,36.36
2022-10-11T12:51:58.935Z,36.30
2022-10-11T12:54:26.658Z,36.42
2022-10-11T12:56:44.110Z,36.36
2022-10-11T12:58:48.987Z,36.27
2022-10-11T13:00:53.233Z,36.49
2022-10-11T13:02:56.004Z,36.09
2022-10-11T13:05:35.217Z,35.93
2022-10-11T13:07:37.055Z,36.04
2022-10-11T13:09:39.313Z,36.01
2022-10-11T13:12:07.754Z,36.12
2022-10-11T13:14:20.836Z,35.96
2022-10-11T13:16:28.218Z,36.03
2022-10-11T13:18:30.142Z,35.99
2022-10-11T13:20:36.269Z,36.12
2022-10-11T13:22:40.591Z,35.92
2022-10-11T13:24:42.285Z,36.00
2022-10-11T13:26:45.417Z,36.14
2022-10-11T13:28:47.116Z,35.69
2022-10-11T13:30:51.304Z,36.10
2022-10-11T13:32:54.650Z,36.14
2022-10-11T13:35:02.867Z,36.11
2022-10-11T13:37:04.814Z,36.16
2022-10-11T13:39:06.551Z,35.55
2022-10-11T13:41:11.561Z,34.96
2022-10-11T13:43:13.318Z,34.71
2022-10-11T13:45:17.079Z,34.92
2022-10-11T13:47:20.489Z,35.28
2022-10-11T13:49:26.149Z,35.29
2022-10-11T13:51:33.344Z,35.26
2022-10-11T13:53:35.318Z,35.21
2022-10-11T13:55:50.097Z,35.44
2022-10-11T13:57:51.770Z,34.43
2022-10-11T13:59:53.528Z,35.17
2022-10-11T14:01:58.629Z,34.74
2022-10-11T14:04:01.719Z,36.12
2022-10-11T14:06:03.873Z,36.05
2022-10-11T14:08:08.033Z,35.32
2022-10-11T14:10:21.177Z,35.78
2022-10-11T14:12:39.932Z,33.56
2022-10-11T14:14:42.018Z,33.46
2022-10-11T14:16:48.075Z,33.03
2022-10-11T14:18:50.993Z,32.77
2022-10-11T14:20:52.685Z,32.42
2022-10-11T14:22:54.670Z,32.41
2022-10-11T14:24:56.558Z,32.25
2022-10-11T14:26:58.513Z,32.59
2022-10-11T14:29:01.825Z,32.13
2022-10-11T14:31:03.741Z,32.55
2022-10-11T14:33:05.733Z,32.23
2022-10-11T14:35:10.352Z,32.12
2022-10-11T14:37:13.645Z,31.76
2022-10-11T14:39:23.757Z,31.54
2022-10-11T14:41:25.433Z,31.55
2022-10-11T14:43:27.181Z,31.72
2022-10-11T14:45:28.873Z,31.61
2022-10-11T14:47:30.961Z,31.96
2022-10-11T14:49:34.734Z,32.23
2022-10-11T14:51:36.525Z,31.96
2022-10-11T14:53:40.873Z,32.39
2022-10-11T14:55:42.907Z,31.68
2022-10-11T14:57:44.766Z,31.64
2022-10-11T14:59:49.948Z,31.55
2022-10-11T15:01:51.973Z,32.02
2022-10-11T15:03:53.731Z,32.05
2022-10-11T15:05:55.455Z,31.87
2022-10-11T15:07:57.625Z,31.24
2022-10-11T15:09:59.312Z,31.38
2022-10-11T15:12:01.014Z,31.41
2022-10-11T15:14:02.692Z,31.26
2022-10-11T15:16:04.806Z,31.29
2022-10-11T15:18:07.439Z,31.39
2022-10-11T15:20:21.959Z,31.89
2022-10-11T15:22:23.778Z,31.77
2022-10-11T15:24:25.568Z,31.58
2022-10-11T15:26:28.493Z,31.71
2022-10-11T15:28:31.482Z,31.51
2022-10-11T15:30:41.080Z,31.84
2022-10-11T15:32:43.580Z,31.29
2022-10-11T15:34:45.293Z,31.41
2022-10-11T15:36:47.285Z,31.26
2022-10-11T15:38:49.370Z,31.33
2022-10-11T15:40:51.082Z,31.61
2022-10-11T15:42:53.787Z,31.35
2022-10-11T15:44:55.463Z,31.02
2022-10-11T15:46:57.536Z,30.78
2022-10-11T15:49:02.191Z,30.50
2022-10-11T15:51:06.179Z,30.47
2022-10-11T15:53:15.772Z,30.31
2022-10-11T15:55:18.041Z,30.41
2022-10-11T15:57:20.120Z,30.64
2022-10-11T15:59:21.868Z,30.71
2022-10-11T16:01:23.636Z,30.49
2022-10-11T16:03:26.767Z,31.27
2022-10-11T16:05:28.658Z,31.20
2022-10-11T16:07:30.447Z,31.15
2022-10-11T16:09:32.429Z,31.11
2022-10-11T16:11:34.100Z,31.44
2022-10-11T16:13:35.937Z,31.16
2022-10-11T16:15:38.851Z,31.29
2022-10-11T16:17:40.602Z,31.18
2022-10-11T16:19:42.375Z,31.06
2022-10-11T16:21:44.310Z,30.94
2022-10-11T16:23:46.004Z,31.10
2022-10-11T16:25:56.904Z,30.95
2022-10-11T16:27:58.877Z,31.02
2022-10-11T16:30:00.851Z,31.04
2022-10-11T16:32:02.566Z,31.29
2022-10-11T16:34:04.603Z,31.53
2022-10-11T16:36:07.233Z,31.38
2022-10-11T16:38:09.701Z,31.87
2022-10-11T16:40:12.290Z,31.33
2022-10-11T16:42:14.256Z,31.41
2022-10-11T16:44:17.685Z,30.92
2022-10-11T16:46:19.847Z,31.54
2022-10-11T16:48:21.613Z,30.34
2022-10-11T16:50:23.285Z,30.23
2022-10-11T16:52:25.197Z,30.99
2022-10-11T16:54:26.962Z,31.18
2022-10-11T16:56:29.072Z,29.74
2022-10-11T16:58:30.771Z,30.96
2022-10-11T17:00:32.559Z,31.13
2022-10-11T17:02:34.348Z,31.29
2022-10-11T17:04:36.137Z,31.02
2022-10-11T17:06:37.946Z,31.28
2022-10-11T17:08:39.764Z,30.44
2022-10-11T17:10:41.767Z,30.33
2022-10-11T17:12:47.725Z,31.04
2022-10-11T17:14:51.665Z,30.28
2022-10-11T17:16:54.286Z,30.11
2022-10-11T17:18:56.051Z,30.46
2022-10-11T17:21:05.099Z,30.06
2022-10-11T17:23:06.851Z,30.17
2022-10-11T17:25:08.843Z,30.51
2022-10-11T17:27:10.706Z,30.64
2022-10-11T17:29:13.694Z,30.03
2022-10-11T17:31:15.485Z,30.17
2022-10-11T17:33:19.774Z,30.52
2022-10-11T17:35:21.570Z,30.35
2022-10-11T17:37:23.207Z,30.85
2022-10-11T17:39:25.516Z,31.22
2022-10-11T17:41:31.852Z,30.04
2022-10-11T17:43:34.427Z,31.19
2022-10-11T17:45:36.480Z,31.50
2022-10-11T17:47:38.898Z,31.02
2022-10-11T17:49:40.814Z,31.05
2022-10-11T17:51:42.644Z,30.83
2022-10-11T17:53:50.536Z,30.56
2022-10-11T17:55:52.998Z,30.44
2022-10-11T17:57:54.705Z,30.75
2022-10-11T17:59:56.436Z,31.11
2022-10-11T18:01:58.378Z,31.26
2022-10-11T18:04:01.525Z,31.20
2022-10-11T18:06:06.994Z,31.64
2022-10-11T18:08:08.752Z,32.63
2022-10-11T18:10:10.588Z,33.01
2022-10-11T18:12:12.368Z,33.10
2022-10-11T18:14:14.362Z,32.51
2022-10-11T18:16:18.934Z,33.24
2022-10-11T18:18:21.081Z,33.53
2022-10-11T18:20:22.743Z,33.52
2022-10-11T18:22:24.615Z,33.29
2022-10-11T18:24:27.464Z,32.96
2022-10-11T18:26:30.936Z,32.76
2022-10-11T18:28:35.473Z,32.91
2022-10-11T18:30:44.495Z,33.24
2022-10-11T18:32:46.212Z,33.56
2022-10-11T18:34:49.257Z,33.49
2022-10-11T18:36:51.067Z,33.87
2022-10-11T18:38:54.347Z,34.10
2022-10-11T18:40:56.146Z,33.96
2022-10-11T18:42:58.008Z,33.47
2022-10-11T18:44:59.867Z,33.35
2022-10-11T18:47:01.707Z,33.26
2022-10-11T18:49:03.560Z,33.35
2022-10-11T18:51:07.047Z,33.54
2022-10-11T18:53:08.998Z,33.66
2022-10-11T18:55:12.310Z,33.56
2022-10-11T18:57:15.098Z,33.63
2022-10-11T18:59:16.770Z,33.59
2022-10-11T19:01:29.542Z,33.45
2022-10-11T19:03:34.942Z,33.78
2022-10-11T19:05:39.230Z,33.77
2022-10-11T19:07:40.868Z,33.48
2022-10-11T19:09:42.714Z,33.75
2022-10-11T19:11:44.459Z,33.77
2022-10-11T19:13:46.286Z,33.82
2022-10-11T19:15:48.056Z,33.89
2022-10-11T19:17:49.839Z,33.84
2022-10-11T19:19:51.520Z,33.91
2022-10-11T19:21:53.320Z,33.83
2022-10-11T19:23:55.404Z,33.67
2022-10-11T19:25:57.647Z,33.71
2022-10-11T19:27:59.397Z,33.81
2022-10-11T19:30:01.106Z,33.89
2022-10-11T19:32:03.030Z,33.82
2022-10-11T19:34:11.127Z,33.99
2022-10-11T19:36:13.245Z,33.81
2022-10-11T19:38:15.110Z,33.62
2022-10-11T19:40:17.319Z,34.01
2022-10-11T19:42:19.122Z,33.82
2022-10-11T19:44:20.828Z,33.85
2022-10-11T19:48:44.347Z,33.94
2022-10-11T19:50:46.035Z,34.19
2022-10-11T19:52:47.706Z,34.06
2022-10-11T19:54:49.380Z,33.94
2022-10-11T19:56:51.209Z,34.32
2022-10-11T19:58:52.937Z,34.04
2022-10-11T20:01:06.294Z,34.21
2022-10-11T20:03:08.197Z,34.39
2022-10-11T20:05:09.986Z,34.39
2022-10-11T20:07:11.693Z,34.33
2022-10-11T20:09:30.378Z,34.51
2022-10-11T20:11:32.207Z,34.29
2022-10-11T20:13:35.116Z,34.25
2022-10-11T20:15:39.866Z,34.02
2022-10-11T20:17:41.615Z,34.11
2022-10-11T20:19:43.318Z,34.14
2022-10-11T20:21:45.336Z,34.09
2022-10-11T20:23:47.592Z,33.99
2022-10-11T20:26:03.047Z,34.09
2022-10-11T20:28:04.809Z,34.13
2022-10-11T20:30:06.894Z,34.07
2022-10-11T20:32:08.658Z,34.02
2022-10-11T20:34:10.454Z,34.09
2022-10-11T20:36:14.166Z,34.09
2022-10-11T20:38:15.913Z,33.90
2022-10-11T20:40:17.772Z,34.27
2022-10-11T20:42:19.467Z,34.65
2022-10-11T20:44:21.200Z,34.37
2022-10-11T20:46:24.531Z,34.82
2022-10-11T20:48:26.212Z,34.57
2022-10-11T20:50:27.923Z,34.64
2022-10-11T20:52:29.628Z,34.39
2022-10-11T20:54:31.340Z,34.60
2022-10-11T20:56:33.203Z,34.39
2022-10-11T20:58:34.879Z,34.59
2022-10-11T21:00:38.371Z,34.72
2022-10-11T21:02:40.188Z,34.53
2022-10-11T21:04:41.839Z,34.49
2022-10-11T21:06:43.538Z,34.24
2022-10-11T21:08:45.276Z,34.32
2022-10-11T21:10:53.920Z,34.43
2022-10-11T21:12:55.664Z,34.46
2022-10-11T21:14:57.341Z,34.13
2022-10-11T21:16:59.072Z,34.02
2022-10-11T21:19:01.231Z,34.32
2022-10-11T21:21:12.977Z,34.42
2022-10-11T21:23:14.847Z,34.34
2022-10-11T21:25:16.712Z,34.45
2022-10-11T21:27:18.381Z,34.16
2022-10-11T21:29:20.170Z,34.17
2022-10-11T21:31:22.304Z,34.02
2022-10-11T21:33:24.009Z,33.81
2022-10-11T21:35:28.615Z,34.29
2022-10-11T21:37:30.312Z,33.83
2022-10-11T21:39:32.078Z,33.97
2022-10-11T21:41:33.784Z,34.11
2022-10-11T21:43:35.659Z,34.07
2022-10-11T21:45:37.918Z,34.27
2022-10-11T21:47:39.927Z,34.00
2022-10-11T21:49:41.785Z,34.15
2022-10-11T21:51:43.667Z,34.17
2022-10-11T21:53:45.302Z,34.11
2022-10-11T21:55:47.064Z,34.29
2022-10-11T21:57:48.776Z,34.17
2022-10-11T21:59:50.493Z,34.31
2022-10-11T22:01:52.266Z,34.27
2022-10-11T22:03:54.223Z,34.08
2022-10-11T22:05:55.943Z,34.31
2022-10-11T22:07:57.694Z,34.14
2022-10-11T22:09:59.371Z,34.03
2022-10-11T22:12:02.096Z,34.10
2022-10-11T22:14:03.857Z,34.17
2022-10-11T22:16:06.663Z,33.99
2022-10-11T22:18:08.377Z,34.27
2022-10-11T22:20:10.292Z,34.12
2022-10-11T22:22:12.052Z,34.36
2022-10-11T22:24:13.785Z,34.13
2022-10-11T22:26:17.405Z,34.15
2022-10-11T22:28:19.248Z,33.98
2022-10-11T22:30:20.966Z,34.20
2022-10-11T22:32:22.714Z,34.38
2022-10-11T22:34:24.440Z,34.40
2022-10-11T22:36:26.980Z,34.24
2022-10-11T22:38:28.805Z,34.42
2022-10-11T22:40:30.586Z,33.96
2022-10-11T22:42:32.284Z,34.15
2022-10-11T22:44:34.062Z,33.87
2022-10-11T22:46:35.797Z,33.91
2022-10-11T22:48:37.500Z,33.86
2022-10-11T22:50:39.452Z,33.46
2022-10-11T22:52:41.189Z,33.91
2022-10-11T22:54:42.965Z,33.64
2022-10-11T22:56:44.718Z,33.55
2022-10-11T22:58:46.386Z,33.42
2022-10-11T23:00:48.067Z,33.58
2022-10-11T23:02:49.809Z,33.44
2022-10-11T23:04:51.570Z,33.57
2022-10-11T23:06:53.313Z,33.70
2022-10-11T23:08:58.450Z,33.32
2022-10-11T23:11:04.638Z,33.68
2022-10-11T23:13:06.405Z,33.32
2022-10-11T23:15:08.410Z,33.66
2022-10-11T23:17:10.115Z,33.49
2022-10-11T23:19:11.809Z,33.44
2022-10-11T23:21:13.508Z,33.55
2022-10-11T23:23:15.244Z,33.42
2022-10-11T23:25:17.170Z,33.29
2022-10-11T23:27:18.935Z,33.39
2022-10-11T23:29:20.673Z,33.52
2022-10-11T23:31:22.441Z,33.25
2022-10-11T23:33:24.176Z,33.14
2022-10-11T23:35:25.936Z,33.50
2022-10-11T23:37:27.642Z,33.47
2022-10-11T23:39:29.352Z,33.34
2022-10-11T23:41:31.211Z,33.33
2022-10-11T23:43:32.919Z,33.41
2022-10-11T23:45:34.624Z,33.47
2022-10-11T23:47:36.675Z,33.28
2022-10-11T23:49:38.632Z,33.36
2022-10-11T23:51:40.318Z,33.38
2022-10-11T23:53:42.320Z,33.25
2022-10-11T23:55:44.003Z,32.93
2022-10-11T23:57:45.719Z,33.31
2022-10-11T23:59:47.513Z,33.33
